Impacts METAR Board
IDs:

KDTW - Detroit Metro/Wayne, MI, US

Updated at: 0900 UTC 18 Jan 2019
Potential Impact None Slight Moderate High
Time 17/21Z 17/22Z 17/23Z 18/00Z 18/01Z 18/02Z 18/03Z 18/04Z 18/05Z 18/06Z 18/07Z 18/08Z 18/09Z
Temp30 30 30 30 30 31 31 31 30 30 31 31 31
Dewpt25 25 26 26 27 27 28 28 28 27 27 26 26
Altim30.03 30.01 30.01 29.99 30.00 29.99 29.98 29.97 29.99 29.98 29.98 30.00 30.02
VIS2.5 2 2 1.75 4 7 6 1 0.25 1.5 2 3 4
CIG30 11 8 8 6 4 4 4 1 4 8 9 12
CoverOVCOVCOVCOVCOVCOVCOVCOVCOVXOVCOVCOVCOVC
FltCatIFRIFRIFRIFRIFRLIFRLIFRLIFRLIFRLIFRIFRIFRMVFR
WX-SN-SN-SN BR-SN BR-SN BR--BR-SN BRFZFG-SN BR-SN BR-SNHZ
WDir11012010013000180300290290300290280
WSpd5 5 3 4 0 0 3 3 5 5 6 6 6
WGst-- -- -- -- -- -- -- -- -- -- -- -- --
Raw hourly METARs
KDTW 172057Z 11005KT 2 1/2SM -SN SCT011 BKN030 OVC060 M01/M04 A3003 RMK AO2 TWR VIS 3 P0000 T10111039
KDTW 172153Z 12005KT 2SM -SN BKN011 OVC030 M01/M04 A3001 RMK AO2 TWR VIS 3 SLP172 P0000 T10111039
KDTW 172253Z 10003KT 2SM -SN BR OVC008 M01/M03 A3001 RMK AO2 SFC VIS 2 1/2 SLP170 P0000 T10111033
KDTW 172353Z 13004KT 1 3/4SM -SN BR OVC008 M01/M03 A2999 RMK AO2 TWR VIS 2 SLP166 P0002 60003 T10111033 11006 21011 56012
KDTW 180053Z 00000KT 4SM -SN BR OVC006 M01/M03 A3000 RMK AO2 SLP166 P0000 T10111028
KDTW 180153Z 00000KT 7SM OVC004 M01/M03 A2999 RMK AO2 SNE36 SLP162 P0000 T10061028
KDTW 180253Z 18003KT 6SM BR OVC004 M01/M02 A2998 RMK AO2 SLP161 60000 T10061022 58004
KDTW 180353Z 30003KT 1SM R03R/P6000FT -SN BR OVC004 M01/M02 A2997 RMK AO2 TWR VIS 1 1/2 SNB38 SLP158 P0000 T10061022
KDTW 180504Z 29005KT 1/4SM R03R/5500VP6000FT FZFG VV001 M01/M02 A2999 RMK AO2 T10111022
KDTW 180553Z 29005KT 1 1/2SM -SN BR OVC004 M01/M03 A2998 RMK AO2 TWR VIS 2 SNB24 SLP159 P0000 60000 T10111028 11006 21011 56002
KDTW 180653Z 30006KT 2SM -SN BR BKN008 OVC035 M01/M03 A2998 RMK AO2 SLP160 P0000 T10061028
KDTW 180753Z 29006KT 3SM -SN BKN009 OVC035 M01/M03 A3000 RMK AO2 TWR VIS 4 SLP166 P0000 T10061033
KDTW 180853Z 28006KT 4SM HZ BKN012 OVC045 M01/M03 A3002 RMK AO2 SNE37 SLP171 P0000 60000 T10061033 53013



Page loaded:  09:10 UTC  |   01:10 AM Pacific  |   02:10 AM Mountain  |   03:10 AM Central  |   04:10 AM Eastern

 

ADVISORIES

FORECASTS

FORECASTS

OBSERVATIONS

USER TOOLS

ABOUT US